createdAt,value
2022-08-31T00:00:51.904Z,46.5
2022-08-31T00:03:51.937Z,46.5
2022-08-31T00:06:53.860Z,46.5
2022-08-31T00:09:51.936Z,46.5
2022-08-31T00:12:51.916Z,46.5
2022-08-31T00:15:51.925Z,46.5
2022-08-31T00:18:51.916Z,46.5
2022-08-31T00:21:51.916Z,46.5
2022-08-31T00:24:51.943Z,46.5
2022-08-31T00:27:51.919Z,46.5
2022-08-31T00:30:51.928Z,47
2022-08-31T00:33:51.934Z,47
2022-08-31T00:36:51.927Z,47
2022-08-31T00:39:51.924Z,47
2022-08-31T00:42:51.922Z,47
2022-08-31T00:45:51.951Z,47
2022-08-31T00:48:51.930Z,47
2022-08-31T00:51:51.919Z,47
2022-08-31T00:54:51.928Z,47
2022-08-31T00:57:51.919Z,47.5
2022-08-31T01:00:51.988Z,47.5
2022-08-31T01:03:51.942Z,47.5
2022-08-31T01:06:51.923Z,47.5
2022-08-31T01:09:55.749Z,47.5
2022-08-31T01:12:51.922Z,47.5
2022-08-31T01:15:54.001Z,47.5
2022-08-31T01:18:51.932Z,47.5
2022-08-31T01:21:51.921Z,47.5
2022-08-31T01:24:51.948Z,47.5
2022-08-31T01:27:51.933Z,48
2022-08-31T01:30:51.937Z,48
2022-08-31T01:33:51.932Z,48
2022-08-31T01:36:51.928Z,48
2022-08-31T01:39:51.940Z,48
2022-08-31T01:42:51.924Z,48
2022-08-31T01:45:51.930Z,48
2022-08-31T01:48:51.942Z,48
2022-08-31T01:51:51.927Z,48.5
2022-08-31T01:54:51.948Z,48.5
2022-08-31T01:57:51.930Z,48.5
2022-08-31T02:00:52.047Z,48.5
2022-08-31T02:03:51.936Z,48.5
2022-08-31T02:06:51.980Z,48.5
2022-08-31T02:09:51.953Z,48.5
2022-08-31T02:12:51.923Z,48.5
2022-08-31T02:15:51.956Z,48.5
2022-08-31T02:18:51.936Z,48.5
2022-08-31T02:21:51.938Z,48.5
2022-08-31T02:24:51.945Z,48.5
2022-08-31T02:27:51.937Z,48.5
2022-08-31T02:30:51.951Z,48.5
2022-08-31T02:33:51.942Z,48.5
2022-08-31T02:36:51.941Z,48.5
2022-08-31T02:39:51.959Z,48.5
2022-08-31T02:42:52.544Z,48.5
2022-08-31T02:45:52.275Z,49
2022-08-31T02:48:51.943Z,49.5
2022-08-31T02:51:51.960Z,49.5
2022-08-31T02:54:51.949Z,49.5
2022-08-31T02:57:51.937Z,49.5
2022-08-31T03:00:51.950Z,49.5
2022-08-31T03:03:51.952Z,49.5
2022-08-31T03:06:51.938Z,49.5
2022-08-31T03:09:51.956Z,49.5
2022-08-31T03:12:51.938Z,49.5
2022-08-31T03:15:51.981Z,49.5
2022-08-31T03:18:51.945Z,49.5
2022-08-31T03:21:54.676Z,49.5
2022-08-31T03:24:51.977Z,49.5
2022-08-31T03:27:51.949Z,49.5
2022-08-31T03:30:51.970Z,50
2022-08-31T03:33:51.949Z,50
2022-08-31T03:36:51.940Z,50
2022-08-31T03:39:51.964Z,50
2022-08-31T03:42:51.943Z,50.5
2022-08-31T03:45:52.024Z,50.5
2022-08-31T03:48:51.957Z,50.5
2022-08-31T03:51:51.953Z,50.5
2022-08-31T03:54:51.957Z,50.5
2022-08-31T03:57:51.941Z,50.5
2022-08-31T04:00:51.954Z,50.5
2022-08-31T04:03:51.956Z,50.5
2022-08-31T04:06:51.952Z,50.5
2022-08-31T04:09:51.957Z,50.5
2022-08-31T04:12:51.954Z,50.5
2022-08-31T04:15:52.014Z,50.5
2022-08-31T04:18:51.942Z,50.5
2022-08-31T04:21:51.948Z,50.5
2022-08-31T04:24:51.972Z,50.5
2022-08-31T04:27:51.948Z,50.5
2022-08-31T04:30:52.014Z,50.5
2022-08-31T04:33:51.943Z,50.5
2022-08-31T04:36:51.952Z,50.5
2022-08-31T04:39:52.169Z,50.5
2022-08-31T04:42:51.951Z,50.5
2022-08-31T04:45:51.974Z,50.5
2022-08-31T04:48:51.953Z,51
2022-08-31T04:51:51.962Z,51.5
2022-08-31T04:54:51.965Z,51.5
2022-08-31T04:57:51.971Z,51.5
2022-08-31T05:00:51.968Z,51.5
2022-08-31T05:03:51.963Z,51.5
2022-08-31T05:06:51.971Z,51.5
2022-08-31T05:09:51.981Z,51.5
2022-08-31T05:12:51.963Z,51.5
2022-08-31T05:15:54.692Z,51.5
2022-08-31T05:18:51.981Z,51.5
2022-08-31T05:21:51.955Z,51.5
2022-08-31T05:24:51.978Z,51.5
2022-08-31T05:27:51.975Z,51.5
2022-08-31T05:30:52.056Z,51.5
2022-08-31T05:33:52.006Z,51.5
2022-08-31T05:36:52.006Z,51.5
2022-08-31T05:39:52.021Z,52
2022-08-31T05:42:52.005Z,52.5
2022-08-31T05:45:52.059Z,52.5
2022-08-31T05:48:52.009Z,52.5
2022-08-31T05:51:52.004Z,52.5
2022-08-31T05:54:52.003Z,52.5
2022-08-31T05:57:52.005Z,53
2022-08-31T06:00:51.995Z,53
2022-08-31T06:03:52.018Z,53
2022-08-31T06:06:52.012Z,53
2022-08-31T06:09:52.025Z,53
2022-08-31T06:12:52.013Z,53
2022-08-31T06:15:52.091Z,53
2022-08-31T06:18:52.014Z,53
2022-08-31T08:27:52.090Z,54
2022-08-31T08:30:52.037Z,54
2022-08-31T08:33:52.021Z,54
2022-08-31T08:36:52.026Z,54
2022-08-31T08:39:52.031Z,54
2022-08-31T08:42:52.029Z,54
2022-08-31T08:45:52.070Z,54
2022-08-31T08:48:55.471Z,54.5
2022-08-31T08:51:52.035Z,54
2022-08-31T08:54:52.031Z,54
2022-08-31T08:57:52.027Z,54.5
2022-08-31T09:00:52.022Z,54.5
2022-08-31T09:03:52.058Z,54.5
2022-08-31T09:06:54.276Z,54.5
2022-08-31T09:09:52.053Z,54.5
2022-08-31T09:12:52.034Z,54.5
2022-08-31T09:15:52.113Z,54.5
2022-08-31T09:18:52.040Z,54.5
2022-08-31T09:21:52.032Z,54.5
2022-08-31T09:24:52.291Z,54.5
2022-08-31T09:27:52.031Z,54.5
2022-08-31T09:30:52.178Z,54.5
2022-08-31T09:33:52.027Z,54.5
2022-08-31T09:36:52.032Z,54.5
2022-08-31T09:39:52.054Z,54.5
2022-08-31T09:42:52.032Z,54.5
2022-08-31T09:45:52.055Z,54.5
2022-08-31T09:48:52.052Z,54.5
2022-08-31T09:51:52.056Z,54.5
2022-08-31T09:54:52.038Z,54.5
2022-08-31T09:57:52.046Z,54.5
2022-08-31T10:00:52.059Z,54.5
2022-08-31T10:03:52.032Z,54.5
2022-08-31T10:06:52.037Z,54.5
2022-08-31T10:09:56.407Z,54.5
2022-08-31T10:12:52.046Z,54.5
2022-08-31T10:15:52.092Z,55
2022-08-31T10:18:52.031Z,55
2022-08-31T10:21:52.084Z,55
2022-08-31T10:24:52.033Z,55
2022-08-31T10:27:52.044Z,55
2022-08-31T10:30:52.089Z,55
2022-08-31T10:33:52.065Z,55
2022-08-31T10:36:52.036Z,55
2022-08-31T10:39:52.065Z,55
2022-08-31T10:42:52.066Z,55
2022-08-31T10:45:52.129Z,55
2022-08-31T10:48:52.065Z,55
2022-08-31T10:51:52.048Z,55
2022-08-31T10:54:52.066Z,55
2022-08-31T10:57:52.051Z,55
2022-08-31T11:00:52.069Z,54.5
2022-08-31T11:03:52.069Z,54.5
2022-08-31T11:06:52.077Z,54.5
2022-08-31T11:09:52.054Z,54
2022-08-31T11:12:52.066Z,54
2022-08-31T11:15:52.091Z,54
2022-08-31T11:18:52.076Z,53.5
2022-08-31T11:21:52.053Z,53.5
2022-08-31T11:24:52.081Z,53.5
2022-08-31T11:27:52.067Z,53.5
2022-08-31T11:30:52.121Z,53.5
2022-08-31T11:34:14.492Z,53.5
2022-08-31T11:36:52.069Z,53
2022-08-31T11:39:52.075Z,53
2022-08-31T11:42:52.058Z,52.5
2022-08-31T11:45:52.101Z,52
2022-08-31T11:48:52.072Z,52
2022-08-31T11:51:52.051Z,52
2022-08-31T11:54:52.069Z,52
2022-08-31T11:57:52.067Z,52
2022-08-31T12:00:52.597Z,52
2022-08-31T12:03:52.072Z,52
2022-08-31T12:06:52.065Z,51.5
2022-08-31T12:09:52.093Z,51.5
2022-08-31T12:12:52.064Z,51.5
2022-08-31T12:15:52.100Z,51.5
2022-08-31T12:18:52.073Z,51.5
2022-08-31T12:21:52.068Z,51.5
2022-08-31T12:24:52.073Z,51
2022-08-31T12:27:52.079Z,51
2022-08-31T12:30:52.122Z,51
2022-08-31T12:33:52.069Z,50.5
2022-08-31T12:36:52.078Z,50.5
2022-08-31T12:39:52.229Z,50.5
2022-08-31T12:42:52.075Z,50.5
2022-08-31T12:45:52.105Z,50
2022-08-31T12:48:52.062Z,50
2022-08-31T12:51:52.079Z,50
2022-08-31T12:54:52.067Z,50
2022-08-31T12:57:52.079Z,50
2022-08-31T13:00:52.081Z,50
2022-08-31T13:03:53.908Z,50
2022-08-31T13:06:52.074Z,50
2022-08-31T13:09:52.078Z,49.5
2022-08-31T13:12:52.074Z,49.5
2022-08-31T13:15:52.081Z,49.5
2022-08-31T13:18:52.081Z,49.5
2022-08-31T13:21:52.063Z,49.5
2022-08-31T13:24:53.962Z,50
2022-08-31T13:27:52.066Z,50
2022-08-31T13:30:55.425Z,50
2022-08-31T13:33:52.084Z,49.5
2022-08-31T13:36:52.306Z,49
2022-08-31T13:39:52.108Z,49
2022-08-31T13:42:54.384Z,49
2022-08-31T13:45:52.092Z,49
2022-08-31T13:48:52.082Z,49
2022-08-31T13:51:52.078Z,49
2022-08-31T13:54:52.092Z,49
2022-08-31T13:57:52.082Z,49
2022-08-31T14:00:52.212Z,49
2022-08-31T14:03:52.086Z,49
2022-08-31T14:06:52.081Z,48
2022-08-31T14:09:52.092Z,48
2022-08-31T14:12:52.077Z,48
2022-08-31T14:15:52.083Z,48
2022-08-31T14:18:52.087Z,48
2022-08-31T14:21:53.150Z,48
2022-08-31T14:24:52.103Z,48
2022-08-31T14:27:52.083Z,48
2022-08-31T14:30:52.091Z,47.5
2022-08-31T14:33:52.083Z,47.5
2022-08-31T14:36:52.084Z,47.5
2022-08-31T14:39:52.107Z,47.5
2022-08-31T14:42:52.086Z,47.5
2022-08-31T14:45:52.133Z,47.5
2022-08-31T14:48:52.110Z,47
2022-08-31T14:51:52.088Z,47
2022-08-31T14:54:52.092Z,47
2022-08-31T14:57:52.093Z,47
2022-08-31T15:00:53.843Z,46.5
2022-08-31T15:03:52.108Z,46.5
2022-08-31T15:06:52.091Z,46.5
2022-08-31T15:09:52.098Z,46
2022-08-31T15:12:52.089Z,46
2022-08-31T15:15:52.087Z,46
2022-08-31T15:18:52.098Z,46
2022-08-31T15:21:52.918Z,45.5
2022-08-31T15:24:52.103Z,45.5
2022-08-31T15:27:52.087Z,45.5
2022-08-31T15:30:52.087Z,45.5
2022-08-31T15:33:52.092Z,45.5
2022-08-31T15:36:52.091Z,45.5
2022-08-31T15:39:52.114Z,45.5
2022-08-31T15:42:52.088Z,46
2022-08-31T15:45:52.136Z,46
2022-08-31T15:48:52.093Z,46
2022-08-31T15:51:52.141Z,46
2022-08-31T15:54:52.149Z,46
2022-08-31T15:57:52.139Z,46
2022-08-31T16:00:52.180Z,46
2022-08-31T16:03:52.140Z,46
2022-08-31T16:06:52.144Z,46
2022-08-31T16:09:52.150Z,46.5
2022-08-31T16:12:52.143Z,46.5
2022-08-31T16:15:52.160Z,46.5
2022-08-31T16:18:52.139Z,46.5
2022-08-31T16:21:52.149Z,46.5
2022-08-31T16:24:52.160Z,46.5
2022-08-31T16:27:52.143Z,46.5
2022-08-31T16:30:52.160Z,46.5
2022-08-31T16:33:52.152Z,47
2022-08-31T16:36:52.141Z,47
2022-08-31T16:39:52.190Z,47
2022-08-31T16:42:52.150Z,47
2022-08-31T16:45:52.176Z,47
2022-08-31T16:48:52.148Z,47
2022-08-31T16:51:52.150Z,47
2022-08-31T16:54:52.142Z,47
2022-08-31T16:57:52.150Z,47
2022-08-31T17:00:52.210Z,47
2022-08-31T17:03:52.145Z,47
2022-08-31T17:06:52.187Z,47
2022-08-31T17:09:52.153Z,47
2022-08-31T17:12:52.148Z,47
2022-08-31T17:15:52.156Z,47
2022-08-31T17:18:52.152Z,47
2022-08-31T17:21:52.157Z,47.5
2022-08-31T17:24:52.148Z,47.5
2022-08-31T17:27:53.468Z,48
2022-08-31T17:30:52.161Z,48
2022-08-31T17:33:52.181Z,48
2022-08-31T17:36:52.175Z,48
2022-08-31T17:39:52.169Z,48
2022-08-31T17:42:52.941Z,48
2022-08-31T17:45:52.171Z,48
2022-08-31T17:48:52.182Z,48
2022-08-31T17:51:52.189Z,48
2022-08-31T17:54:52.165Z,48
2022-08-31T17:57:52.188Z,48
2022-08-31T18:00:52.186Z,48.5
2022-08-31T18:03:52.178Z,48.5
2022-08-31T18:06:52.177Z,48.5
2022-08-31T18:09:52.215Z,48.5
2022-08-31T18:12:52.192Z,48.5
2022-08-31T18:15:52.219Z,48.5
2022-08-31T18:18:52.199Z,48.5
2022-08-31T18:21:52.200Z,48.5
2022-08-31T18:24:52.198Z,48.5
2022-08-31T18:27:52.191Z,49
2022-08-31T18:30:52.186Z,49
2022-08-31T18:33:52.227Z,49
2022-08-31T18:36:52.200Z,49
2022-08-31T18:39:52.480Z,49
2022-08-31T18:42:52.187Z,49.5
2022-08-31T18:45:52.174Z,49.5
2022-08-31T18:48:52.206Z,49.5
2022-08-31T18:51:52.194Z,49.5
2022-08-31T18:54:52.180Z,49.5
2022-08-31T18:57:52.187Z,49.5
2022-08-31T19:00:52.324Z,49.5
2022-08-31T19:03:52.198Z,49.5
2022-08-31T19:06:52.203Z,49.5
2022-08-31T19:09:52.201Z,49.5
2022-08-31T19:12:52.184Z,49.5
2022-08-31T19:15:52.251Z,49.5
2022-08-31T19:18:52.208Z,49.5
2022-08-31T19:21:52.202Z,49.5
2022-08-31T19:24:52.203Z,49.5
2022-08-31T19:27:52.191Z,49.5
2022-08-31T19:30:52.198Z,49.5
2022-08-31T19:33:56.357Z,49.5
2022-08-31T19:36:54.604Z,49.5
2022-08-31T19:39:52.205Z,49.5
2022-08-31T19:43:00.004Z,49.5
2022-08-31T19:45:52.206Z,49.5
2022-08-31T19:48:52.205Z,49.5
2022-08-31T19:51:52.206Z,49.5
2022-08-31T19:54:52.212Z,49.5
2022-08-31T19:57:52.188Z,49.5
2022-08-31T20:00:52.213Z,49.5
2022-08-31T20:03:52.203Z,49.5
2022-08-31T20:06:52.522Z,49.5
2022-08-31T20:09:52.214Z,49.5
2022-08-31T20:12:52.404Z,49.5
2022-08-31T20:15:52.280Z,50
2022-08-31T20:18:52.267Z,50.5
2022-08-31T20:21:52.252Z,50.5
2022-08-31T20:24:52.260Z,50.5
2022-08-31T20:27:52.253Z,50.5
2022-08-31T20:30:52.404Z,50.5
2022-08-31T20:33:52.256Z,50.5
2022-08-31T20:36:52.266Z,50.5
2022-08-31T20:39:52.262Z,50.5
2022-08-31T20:42:52.256Z,50.5
2022-08-31T20:45:52.230Z,50.5
2022-08-31T20:48:52.214Z,50.5
2022-08-31T20:51:52.248Z,50.5
2022-08-31T20:54:52.215Z,50.5
2022-08-31T20:57:52.218Z,50.5
2022-08-31T21:00:52.226Z,50.5
2022-08-31T21:03:52.203Z,50.5
2022-08-31T21:06:52.223Z,50.5
2022-08-31T21:09:52.234Z,50.5
2022-08-31T21:12:53.210Z,50.5
2022-08-31T21:15:52.245Z,51
2022-08-31T21:18:52.208Z,51
2022-08-31T21:21:52.234Z,51
2022-08-31T21:24:52.222Z,51
2022-08-31T21:27:52.213Z,51.5
2022-08-31T21:30:52.250Z,51.5
2022-08-31T21:33:52.214Z,51.5
2022-08-31T21:36:52.236Z,51.5
2022-08-31T21:39:55.800Z,51.5
2022-08-31T21:42:52.217Z,51.5
2022-08-31T21:45:59.843Z,51.5
2022-08-31T21:48:52.213Z,51.5
2022-08-31T21:51:52.221Z,51.5
2022-08-31T21:54:52.224Z,51.5
2022-08-31T21:57:52.215Z,51.5
2022-08-31T22:00:52.228Z,51.5
2022-08-31T22:03:52.219Z,51.5
2022-08-31T22:06:52.404Z,51.5
2022-08-31T22:09:52.230Z,51.5
2022-08-31T22:12:52.221Z,51.5
2022-08-31T22:15:52.226Z,51.5
2022-08-31T22:19:01.602Z,51.5
2022-08-31T22:21:52.226Z,51.5
2022-08-31T22:24:52.232Z,51.5
2022-08-31T22:27:52.214Z,51.5
2022-08-31T22:30:52.267Z,51.5
2022-08-31T22:33:52.232Z,51.5
2022-08-31T22:36:52.233Z,51.5
2022-08-31T22:39:52.226Z,51.5
2022-08-31T22:42:52.225Z,51.5
2022-08-31T22:45:52.213Z,51.5
2022-08-31T22:48:52.216Z,51.5
2022-08-31T22:51:52.224Z,52
2022-08-31T22:54:52.224Z,52
2022-08-31T22:57:52.221Z,52
2022-08-31T23:00:52.224Z,52
2022-08-31T23:03:52.274Z,52
2022-08-31T23:06:52.227Z,52
2022-08-31T23:09:52.226Z,52
2022-08-31T23:12:52.224Z,52
2022-08-31T23:15:52.241Z,52
2022-08-31T23:18:52.229Z,52
2022-08-31T23:21:52.795Z,52
2022-08-31T23:24:52.231Z,52
2022-08-31T23:27:52.219Z,52
2022-08-31T23:30:52.286Z,52
2022-08-31T23:33:52.222Z,52
2022-08-31T23:36:52.240Z,52
2022-08-31T23:39:52.236Z,52
2022-08-31T23:42:52.229Z,52
2022-08-31T23:45:52.258Z,52
2022-08-31T23:48:52.224Z,52
2022-08-31T23:51:52.259Z,52
2022-08-31T23:54:52.234Z,52
2022-08-31T23:57:52.228Z,52.5
